Time;durP1;ratioP1;P1;durP2;ratioP2;P2;SDS_P1;SDS_P2;PMS_P1;PMS_P2;Temp;Humidity;BMP_temperature;BMP_pressure;BME280_temperature;BME280_humidity;BME280_pressure;Samples;Min_cycle;Max_cycle;Signal;HPM_P1;HPM_P2
2023/01/17 07:41:26;;;;;;;6.57;2.10;;;;;;;-2.23;100.00;96326.13;5109817;27;20366;-79
2023/01/17 07:43:52;;;;;;;4.77;3.07;;;;;;;-2.15;100.00;96298.63;5109558;28;20044;-79
2023/01/17 07:46:19;;;;;;;3.83;2.57;;;;;;;-1.93;100.00;96291.66;5109211;28;20051;-79
2023/01/17 07:48:45;;;;;;;3.57;2.17;;;;;;;-1.64;100.00;96311.41;5108107;28;20044;-79
2023/01/17 07:51:12;;;;;;;5.05;2.65;;;;;;;-1.44;100.00;96320.59;5110240;28;20048;-79
2023/01/17 07:53:39;;;;;;;3.53;2.22;;;;;;;-1.46;100.00;96298.63;5109401;28;20127;-80
2023/01/17 07:56:07;;;;;;;3.05;2.40;;;;;;;-1.13;100.00;96306.34;5113530;28;20119;-79
2023/01/17 07:58:35;;;;;;;4.53;2.75;;;;;;;-1.16;100.00;96303.19;5108697;28;20130;-79
2023/01/17 08:01:03;;;;;;;3.53;2.60;;;;;;;-1.10;100.00;96286.47;5102019;28;20040;-79
2023/01/17 08:03:31;;;;;;;4.47;2.20;;;;;;;-1.14;100.00;96279.88;5109092;28;20055;-79
2023/01/17 08:05:58;;;;;;;5.22;2.67;;;;;;;-1.13;100.00;96273.50;5109966;28;20059;-79
2023/01/17 08:08:25;;;;;;;4.40;2.22;;;;;;;-1.15;100.00;96283.53;5108484;28;20052;-79
2023/01/17 08:10:52;;;;;;;5.55;3.47;;;;;;;-1.30;100.00;96280.84;5109806;28;20060;-79
2023/01/17 08:13:18;;;;;;;6.65;2.95;;;;;;;-1.24;100.00;96269.44;5109080;28;20087;-79
2023/01/17 08:15:49;;;;;;;4.50;2.63;;;;;;;-1.15;100.00;96279.00;5109883;28;20051;-79
2023/01/17 08:18:16;;;;;;;7.97;2.70;;;;;;;-1.02;100.00;96298.88;5107961;28;20410;-79
2023/01/17 08:20:43;;;;;;;3.28;2.45;;;;;;;-1.03;100.00;96290.06;5109608;28;20050;-79
2023/01/17 08:23:10;;;;;;;4.68;2.10;;;;;;;-1.00;100.00;96291.56;5108663;28;20044;-79
2023/01/17 08:25:37;;;;;;;9.18;4.65;;;;;;;-1.08;100.00;96271.94;5109697;28;20054;-79
2023/01/17 08:28:04;;;;;;;6.30;3.90;;;;;;;-1.09;100.00;96291.63;5115203;27;20039;-79
2023/01/17 08:30:31;;;;;;;7.32;4.47;;;;;;;-0.96;100.00;96299.00;5117347;27;20052;-80
2023/01/17 08:32:58;;;;;;;9.63;4.13;;;;;;;-0.96;100.00;96296.34;5108896;28;20060;-80
2023/01/17 08:35:26;;;;;;;7.75;4.22;;;;;;;-0.96;100.00;96279.50;5107354;28;20044;-79
2023/01/17 08:37:54;;;;;;;7.18;3.72;;;;;;;-0.79;100.00;96288.16;5105815;28;20051;-79
2023/01/17 08:40:21;;;;;;;6.18;2.70;;;;;;;-0.82;100.00;96269.84;5108712;28;20048;-79
2023/01/17 08:42:53;;;;;;;10.95;3.17;;;;;;;-0.67;100.00;96275.19;5106310;28;20044;-80
2023/01/17 08:45:20;;;;;;;4.32;2.58;;;;;;;-0.78;100.00;96266.63;5108899;28;20052;-80
2023/01/17 08:47:46;;;;;;;5.60;2.67;;;;;;;-0.40;100.00;96295.03;5105923;28;20403;-79
2023/01/17 08:50:19;;;;;;;4.32;3.00;;;;;;;-0.42;100.00;96273.03;5102971;28;20055;-79
2023/01/17 08:52:46;;;;;;;3.45;2.53;;;;;;;-0.15;100.00;96266.19;5094571;28;20138;-80
2023/01/17 08:55:12;;;;;;;4.32;2.10;;;;;;;0.06;100.00;96286.75;5095422;28;20044;-80
2023/01/17 08:57:39;;;;;;;4.18;2.53;;;;;;;-0.02;100.00;96266.28;5094719;28;20052;-80
2023/01/17 09:00:06;;;;;;;6.45;2.33;;;;;;;0.17;100.00;96277.41;5094922;28;20407;-80
2023/01/17 09:02:33;;;;;;;2.15;1.67;;;;;;;0.23;100.00;96273.97;5092786;28;20056;-80
2023/01/17 09:05:00;;;;;;;2.45;1.83;;;;;;;0.50;100.00;96283.03;5094319;28;20044;-80
2023/01/17 09:07:28;;;;;;;2.90;1.90;;;;;;;0.56;100.00;96272.59;5094262;28;20503;-80
2023/01/17 09:09:54;;;;;;;2.05;1.77;;;;;;;0.50;100.00;96272.34;5095055;28;20051;-80
2023/01/17 09:12:21;;;;;;;3.97;1.50;;;;;;;0.56;100.00;96268.09;5094462;28;20095;-80
2023/01/17 09:14:48;;;;;;;5.50;1.90;;;;;;;0.60;100.00;96274.69;5090769;28;20044;-80
2023/01/17 09:17:15;;;;;;;4.93;2.80;;;;;;;0.66;100.00;96289.97;5086835;28;20045;-80
2023/01/17 09:19:44;;;;;;;3.72;2.60;;;;;;;0.59;100.00;96289.09;5088849;28;20502;-80
2023/01/17 09:22:10;;;;;;;5.32;2.80;;;;;;;0.64;100.00;96269.78;5094392;28;20052;-80
2023/01/17 09:24:38;;;;;;;8.27;2.60;;;;;;;0.81;100.00;96289.06;5093525;28;20044;-80
2023/01/17 09:27:05;;;;;;;4.70;2.30;;;;;;;0.74;100.00;96270.28;5094017;28;20054;-80
2023/01/17 09:29:31;;;;;;;6.82;2.58;;;;;;;0.86;100.00;96263.38;5094726;28;20044;-80
2023/01/17 09:31:59;;;;;;;6.80;1.80;;;;;;;0.99;100.00;96262.63;5092433;28;20044;-80
2023/01/17 09:34:25;;;;;;;3.67;1.88;;;;;;;1.29;100.00;96283.00;5090433;28;20064;-81
2023/01/17 09:36:52;;;;;;;4.05;1.40;;;;;;;1.52;98.78;96286.22;5089742;28;20079;-81
2023/01/17 09:39:18;;;;;;;2.40;1.45;;;;;;;1.62;97.09;96258.25;5094292;28;20118;-81
2023/01/17 09:41:52;;;;;;;2.58;1.25;;;;;;;1.94;88.53;96280.81;5093055;28;20048;-80
2023/01/17 09:44:26;;;;;;;2.65;1.40;;;;;;;1.91;85.49;96255.28;5090562;28;20048;-80
2023/01/17 09:46:55;;;;;;;3.13;1.45;;;;;;;1.84;83.35;96245.56;5074159;28;20055;-81
2023/01/17 09:49:32;;;;;;;2.67;1.05;;;;;;;1.99;83.16;96270.34;5073101;28;20040;-80
2023/01/17 09:51:59;;;;;;;4.15;1.65;;;;;;;2.10;82.72;96260.88;5080679;28;20036;-80
2023/01/17 09:54:33;;;;;;;3.72;1.65;;;;;;;2.01;81.65;96254.88;5093527;28;20138;-81
2023/01/17 09:57:08;;;;;;;2.63;1.33;;;;;;;1.97;80.62;96237.53;5094299;28;20059;-80
2023/01/17 09:59:44;;;;;;;1.52;1.00;;;;;;;1.99;80.25;96230.16;5093623;28;20059;-80
2023/01/17 10:02:30;;;;;;;1.42;1.00;;;;;;;2.06;76.31;96247.06;5090897;28;20059;-80
2023/01/17 10:05:13;;;;;;;2.17;1.15;;;;;;;2.08;78.79;96236.97;5093074;28;20419;-80
2023/01/17 10:07:46;;;;;;;2.08;1.40;;;;;;;2.09;77.08;96241.31;5088505;28;20135;-80
2023/01/17 10:10:21;;;;;;;2.65;1.38;;;;;;;2.22;76.89;96240.50;5092343;28;20067;-81
2023/01/17 10:12:56;;;;;;;4.22;1.55;;;;;;;2.17;75.43;96216.16;5087859;28;20063;-81
2023/01/17 10:15:44;;;;;;;2.53;1.50;;;;;;;2.25;70.89;96220.50;5110379;28;20051;-81
2023/01/17 10:18:28;;;;;;;1.50;0.90;;;;;;;2.32;70.23;96224.03;5114358;28;20047;-81
2023/01/17 10:21:03;;;;;;;1.98;1.20;;;;;;;2.38;68.09;96217.84;5105149;28;20038;-80
2023/01/17 10:23:56;;;;;;;1.85;1.15;;;;;;;2.45;67.15;96213.31;5088995;28;20051;-80
2023/01/17 10:26:24;;;;;;;1.10;1.00;;;;;;;2.61;66.20;96235.38;5093341;28;20388;-81
2023/01/17 10:28:55;;;;;;;1.63;1.15;;;;;;;2.63;66.24;96212.69;5081794;28;20044;-81
2023/01/17 10:31:23;;;;;;;1.77;1.25;;;;;;;2.67;68.08;96214.97;5082495;28;20052;-81
2023/01/17 10:33:52;;;;;;;1.55;0.82;;;;;;;2.77;65.80;96231.44;5093135;28;20052;-81
2023/01/17 10:36:21;;;;;;;4.20;1.20;;;;;;;2.65;65.84;96186.47;5093539;28;20047;-81
2023/01/17 10:38:51;;;;;;;1.58;0.90;;;;;;;2.70;64.18;96188.53;5092573;28;20074;-81
2023/01/17 10:41:25;;;;;;;1.45;0.70;;;;;;;2.75;63.91;96191.41;5093048;28;20044;-81
2023/01/17 10:44:04;;;;;;;1.05;0.80;;;;;;;2.91;62.90;96202.75;5080873;28;20048;-81
2023/01/17 10:46:37;;;;;;;0.63;0.63;;;;;;;3.04;61.67;96202.72;5085145;28;20052;-81
2023/01/17 10:49:04;;;;;;;0.98;0.70;;;;;;;3.07;59.25;96194.25;5090454;28;20047;-81
2023/01/17 10:51:48;;;;;;;0.60;0.60;;;;;;;3.06;59.16;96197.97;5093373;28;20048;-81
2023/01/17 10:54:27;;;;;;;1.85;0.70;;;;;;;3.24;55.47;96199.13;5092691;28;20048;-81
2023/01/17 10:56:53;;;;;;;1.27;0.73;;;;;;;3.11;56.31;96167.81;5093002;28;20134;-81
2023/01/17 10:59:29;;;;;;;1.65;0.55;;;;;;;3.21;56.62;96172.72;5084766;28;20052;-81
2023/01/17 11:01:56;;;;;;;4.25;0.80;;;;;;;3.27;54.80;96183.44;5092427;28;20044;-81
2023/01/17 11:04:31;;;;;;;1.58;0.70;;;;;;;3.18;55.09;96166.75;5092485;28;20052;-81
2023/01/17 11:07:12;;;;;;;2.33;0.73;;;;;;;3.29;56.19;96165.25;5093170;28;20060;-81
2023/01/17 11:09:40;;;;;;;4.35;0.77;;;;;;;3.31;56.12;96173.94;5093538;28;20044;-81
2023/01/17 11:12:17;;;;;;;0.47;0.47;;;;;;;3.46;54.68;96178.22;5097540;28;20058;-81
2023/01/17 11:14:57;;;;;;;0.63;0.50;;;;;;;3.41;56.02;96181.53;5072357;28;20047;-81
2023/01/17 11:17:26;;;;;;;0.70;0.50;;;;;;;3.25;55.79;96155.16;5078405;28;20040;-81
2023/01/17 11:19:53;;;;;;;0.70;0.68;;;;;;;3.48;57.22;96162.72;5091728;28;20051;-81
2023/01/17 11:22:20;;;;;;;0.80;0.80;;;;;;;3.34;55.97;96145.81;5091822;28;20040;-81
2023/01/17 11:24:50;;;;;;;1.17;0.60;;;;;;;3.41;55.20;96146.63;5092809;28;20078;-81
2023/01/17 11:27:25;;;;;;;0.65;0.52;;;;;;;3.39;54.90;96147.88;5087902;28;20040;-81
2023/01/17 11:30:05;;;;;;;0.65;0.65;;;;;;;3.44;55.51;96151.56;5093258;28;20067;-81
2023/01/17 11:32:33;;;;;;;1.67;0.50;;;;;;;3.36;54.38;96152.63;5091659;28;20507;-80
2023/01/17 11:35:15;;;;;;;0.65;0.47;;;;;;;3.36;55.97;96146.44;5089023;28;20068;-81
2023/01/17 11:37:49;;;;;;;1.20;0.40;;;;;;;3.56;53.60;96161.66;5086467;28;20101;-81
2023/01/17 11:40:22;;;;;;;7.78;0.50;;;;;;;3.51;56.07;96143.50;5092265;28;20048;-81
2023/01/17 11:43:01;;;;;;;0.77;0.50;;;;;;;3.64;58.17;96146.09;5092066;28;20048;-81
2023/01/17 11:45:31;;;;;;;1.55;0.80;;;;;;;3.56;56.97;96124.03;5092687;28;20044;-81
2023/01/17 11:48:12;;;;;;;1.88;0.70;;;;;;;3.68;56.78;96131.19;5092228;28;20048;-81
2023/01/17 11:50:41;;;;;;;0.77;0.77;;;;;;;3.66;55.36;96122.53;5084185;28;20407;-81
2023/01/17 11:53:18;;;;;;;2.22;0.80;;;;;;;3.46;53.81;96105.69;5078664;28;20044;-81
2023/01/17 11:56:02;;;;;;;0.50;0.50;;;;;;;3.65;56.00;96126.25;5092529;28;20048;-81
2023/01/17 11:58:30;;;;;;;0.60;0.60;;;;;;;3.61;56.90;96122.34;5072530;28;20480;-81
2023/01/17 12:01:12;;;;;;;0.80;0.55;;;;;;;3.72;55.96;96118.16;5072011;28;20049;-81
2023/01/17 12:04:02;;;;;;;1.38;0.68;;;;;;;3.62;55.72;96104.38;5094283;28;20047;-81
2023/01/17 12:06:37;;;;;;;1.83;0.70;;;;;;;3.64;56.47;96100.41;5091034;28;20052;-81
2023/01/17 12:09:13;;;;;;;0.50;0.50;;;;;;;3.92;56.14;96115.34;5091586;28;20060;-81
2023/01/17 12:14:46;;;;;;;0.45;0.45;;;;;;;3.93;52.61;96095.50;5090783;28;20502;-81
2023/01/17 12:17:29;;;;;;;0.50;0.50;;;;;;;3.96;51.52;96080.78;5092168;28;20407;-81
2023/01/17 12:20:00;;;;;;;0.70;0.40;;;;;;;3.86;51.58;96062.47;5092605;28;20044;-81
2023/01/17 12:22:48;;;;;;;0.40;0.40;;;;;;;4.06;54.63;96083.78;5076831;28;20055;-81
2023/01/17 12:25:28;;;;;;;1.17;0.70;;;;;;;4.00;53.16;96053.22;5078444;28;20048;-81
2023/01/17 12:28:10;;;;;;;1.10;0.65;;;;;;;4.08;53.01;96060.22;5095069;28;20062;-81
2023/01/17 12:30:52;;;;;;;3.42;0.90;;;;;;;4.21;54.42;96065.47;5095957;28;20040;-81
2023/01/17 12:33:27;;;;;;;0.65;0.60;;;;;;;4.00;53.72;96044.34;5095468;28;20044;-81
2023/01/17 12:35:57;;;;;;;1.67;0.50;;;;;;;3.92;53.24;96039.28;5092985;28;20044;-81
2023/01/17 12:38:29;;;;;;;1.00;0.50;;;;;;;3.98;54.38;96055.31;5095546;28;20052;-81
2023/01/17 12:41:01;;;;;;;4.18;0.70;;;;;;;3.95;54.72;96039.63;5095733;28;20483;-81
2023/01/17 12:43:31;;;;;;;1.05;0.50;;;;;;;3.71;54.52;96041.28;5093722;28;20048;-81
2023/01/17 12:46:02;;;;;;;4.10;1.15;;;;;;;3.69;54.02;96032.63;5090435;28;20071;-81
2023/01/17 12:48:36;;;;;;;0.70;0.70;;;;;;;3.80;54.12;96053.41;5094150;28;20052;-81
2023/01/17 12:51:08;;;;;;;2.50;0.90;;;;;;;3.67;54.91;96026.63;5081700;28;20059;-82
2023/01/17 12:53:41;;;;;;;3.67;0.77;;;;;;;3.75;55.27;96037.13;5091899;28;20063;-81
2023/01/17 12:56:12;;;;;;;0.70;0.70;;;;;;;3.64;53.75;96019.81;5094639;28;20059;-81
2023/01/17 12:58:42;;;;;;;1.77;0.73;;;;;;;3.72;55.65;96024.94;5103983;28;20040;-82
2023/01/17 13:01:28;;;;;;;2.58;0.68;;;;;;;3.71;53.79;96023.28;5108924;28;20511;-81
2023/01/17 13:04:08;;;;;;;1.00;0.63;;;;;;;3.56;55.58;95990.56;5094291;28;20040;-81
2023/01/17 13:06:47;;;;;;;1.10;0.68;;;;;;;3.73;57.31;96001.56;5093908;28;20055;-81
2023/01/17 13:09:19;;;;;;;1.38;0.82;;;;;;;3.88;58.09;96014.69;5095375;28;20048;-81
2023/01/17 13:11:50;;;;;;;4.43;1.20;;;;;;;4.01;58.59;96016.44;5095140;28;20051;-81
2023/01/17 13:14:16;;;;;;;3.33;0.85;;;;;;;3.87;57.95;95983.50;5094652;28;20054;-81
2023/01/17 13:16:49;;;;;;;0.93;0.70;;;;;;;3.95;58.56;95990.44;5093920;28;20044;-81
2023/01/17 13:19:24;;;;;;;1.60;0.52;;;;;;;3.98;56.86;95990.81;5093665;28;20048;-82
2023/01/17 13:21:50;;;;;;;0.65;0.60;;;;;;;4.06;56.15;95995.09;5094731;28;20040;-81
2023/01/17 13:24:31;;;;;;;2.50;0.60;;;;;;;4.04;55.37;96000.69;5090537;28;20059;-81
2023/01/17 13:27:18;;;;;;;0.80;0.70;;;;;;;3.95;58.74;95996.63;5094493;28;20725;-81
2023/01/17 13:29:58;;;;;;;1.38;0.70;;;;;;;3.97;55.72;95994.53;5092019;28;20047;-81
2023/01/17 13:32:46;;;;;;;0.85;0.80;;;;;;;3.85;57.43;95983.72;5091378;28;20480;-81
2023/01/17 13:35:40;;;;;;;1.88;0.50;;;;;;;3.76;58.11;95974.25;5091713;28;20047;-81
2023/01/17 13:38:33;;;;;;;0.57;0.50;;;;;;;3.78;57.80;95982.94;5094605;28;20059;-81
2023/01/17 13:41:16;;;;;;;2.25;0.85;;;;;;;3.96;58.77;95989.38;5094502;28;20048;-81
2023/01/17 13:44:20;;;;;;;6.78;1.10;;;;;;;3.82;58.45;95970.69;5092166;28;20043;-81
2023/01/17 13:46:56;;;;;;;1.50;0.70;;;;;;;3.76;59.32;95963.50;5094335;28;20511;-81
2023/01/17 13:49:33;;;;;;;0.50;0.50;;;;;;;3.76;59.47;95960.00;5091420;28;20044;-81
2023/01/17 13:52:08;;;;;;;2.83;0.75;;;;;;;3.70;58.60;95957.19;5094113;28;20044;-81
2023/01/17 13:54:43;;;;;;;0.75;0.68;;;;;;;3.70;57.11;95953.66;5093152;28;20044;-81
2023/01/17 13:57:38;;;;;;;0.77;0.65;;;;;;;3.82;58.22;95983.31;5094494;28;20048;-81
2023/01/17 14:00:42;;;;;;;0.45;0.45;;;;;;;3.82;59.35;95986.00;5094721;28;20052;-81
2023/01/17 14:03:11;;;;;;;1.08;0.80;;;;;;;3.69;58.64;95962.78;5090894;28;20452;-81
2023/01/17 14:05:55;;;;;;;2.07;0.60;;;;;;;3.68;57.14;95953.06;5094771;28;20062;-81
2023/01/17 14:08:26;;;;;;;0.75;0.73;;;;;;;3.66;59.23;95971.28;5095654;28;20068;-81
2023/01/17 14:10:54;;;;;;;1.95;1.08;;;;;;;3.47;59.57;95968.50;5093903;28;20411;-81
2023/01/17 14:13:33;;;;;;;4.03;0.80;;;;;;;3.65;59.51;95994.59;5092076;28;20044;-81
2023/01/17 14:16:00;;;;;;;2.53;0.88;;;;;;;3.57;59.06;95996.75;5109228;28;20052;-81
2023/01/17 14:18:32;;;;;;;2.63;0.70;;;;;;;3.50;60.35;95994.94;5085410;28;20036;-81
2023/01/17 14:21:12;;;;;;;0.73;0.70;;;;;;;3.53;61.71;95999.03;5093626;28;20044;-81
2023/01/17 14:23:55;;;;;;;2.25;1.08;;;;;;;3.51;61.23;96007.31;5091706;28;20048;-81
2023/01/17 14:26:47;;;;;;;1.30;0.90;;;;;;;3.43;61.61;95990.66;5093601;28;20062;-81
2023/01/17 14:29:51;;;;;;;2.35;0.93;;;;;;;3.53;60.23;96004.41;5093735;28;20052;-82
2023/01/17 14:32:20;;;;;;;1.58;0.65;;;;;;;3.38;60.80;95996.66;5089825;28;20048;-81
2023/01/17 14:34:49;;;;;;;6.45;0.85;;;;;;;3.43;61.18;96006.75;5081814;28;20491;-81
2023/01/17 14:37:33;;;;;;;1.52;0.77;;;;;;;3.49;58.77;96004.03;5093597;28;20135;-81
2023/01/17 14:40:01;;;;;;;4.25;1.40;;;;;;;3.48;60.05;96009.63;5092428;28;20412;-81
2023/01/17 14:42:30;;;;;;;3.50;1.20;;;;;;;3.29;60.53;95997.97;5091201;28;20036;-81
2023/01/17 14:45:02;;;;;;;2.03;1.17;;;;;;;3.29;59.85;95974.63;5089596;28;20048;-81
2023/01/17 14:47:31;;;;;;;2.85;1.40;;;;;;;3.42;58.62;96000.56;5085172;28;20270;-81
2023/01/17 14:50:21;;;;;;;2.17;1.25;;;;;;;3.50;58.64;96008.34;5090044;28;20056;-81
2023/01/17 14:52:48;;;;;;;2.05;1.13;;;;;;;3.32;59.06;95987.63;5072235;28;20056;-81
2023/01/17 14:55:19;;;;;;;3.47;1.05;;;;;;;3.31;58.43;95980.63;5073054;28;20040;-81
2023/01/17 14:57:54;;;;;;;3.00;1.50;;;;;;;3.22;59.18;95981.88;5073234;28;20059;-79
2023/01/17 15:00:24;;;;;;;2.47;1.48;;;;;;;3.26;58.96;95976.94;5076121;28;20040;-79
2023/01/17 15:02:53;;;;;;;2.65;1.63;;;;;;;3.30;59.01;95987.00;5086804;28;20055;-79
2023/01/17 15:05:21;;;;;;;4.70;1.55;;;;;;;3.16;60.43;95980.91;5092675;28;20488;-79
2023/01/17 15:07:51;;;;;;;3.80;1.33;;;;;;;3.17;60.24;95990.59;5092912;28;20044;-79
2023/01/17 15:10:23;;;;;;;3.22;1.40;;;;;;;3.00;59.24;95968.00;5092152;28;20613;-79
2023/01/17 15:12:51;;;;;;;2.03;1.50;;;;;;;2.96;60.68;95972.16;5092414;28;20059;-79
2023/01/17 15:15:29;;;;;;;4.18;1.27;;;;;;;2.93;58.96;95968.03;5075289;28;20059;-79
2023/01/17 15:18:18;;;;;;;2.13;1.42;;;;;;;2.93;60.37;95989.50;5088485;28;20060;-79
2023/01/17 15:20:50;;;;;;;3.97;1.80;;;;;;;2.86;58.47;95964.59;5085615;28;20048;-79
2023/01/17 15:23:20;;;;;;;4.20;1.85;;;;;;;2.81;57.26;95967.88;5090108;28;20515;-79
2023/01/17 15:25:49;;;;;;;9.30;2.30;;;;;;;2.80;57.38;95968.09;5091080;28;20044;-79
2023/01/17 15:28:16;;;;;;;3.03;1.55;;;;;;;2.77;58.41;95977.41;5087777;28;20054;-79
2023/01/17 15:31:03;;;;;;;3.00;1.70;;;;;;;2.68;58.37;95969.81;5089814;28;20395;-79
2023/01/17 15:33:30;;;;;;;4.55;1.80;;;;;;;2.68;60.24;95981.38;5099958;28;20054;-79
2023/01/17 15:36:01;;;;;;;2.35;1.48;;;;;;;2.54;61.55;95972.53;5098509;28;20531;-79
2023/01/17 15:38:28;;;;;;;4.13;1.52;;;;;;;2.39;63.29;95966.63;5090081;28;20056;-79
2023/01/17 15:40:58;;;;;;;3.35;1.60;;;;;;;2.34;61.15;95969.13;5089210;28;20048;-79
2023/01/17 15:43:34;;;;;;;4.82;1.80;;;;;;;2.24;63.09;95948.97;5088329;28;20552;-79
2023/01/17 15:46:02;;;;;;;3.50;1.83;;;;;;;2.29;59.78;95965.22;5090740;28;20044;-78
2023/01/17 15:48:39;;;;;;;4.88;1.40;;;;;;;2.24;62.05;95953.47;5088698;28;20055;-79
2023/01/17 15:51:06;;;;;;;5.90;2.05;;;;;;;2.14;63.24;95964.66;5089115;28;20056;-79
2023/01/17 15:53:35;;;;;;;7.85;1.73;;;;;;;2.20;59.37;95971.84;5088190;28;20040;-79
2023/01/17 15:56:20;;;;;;;3.90;1.60;;;;;;;2.09;60.79;95970.66;5090243;28;20056;-79
2023/01/17 15:58:49;;;;;;;2.22;1.60;;;;;;;2.24;59.69;95982.97;5090053;28;20056;-79
2023/01/17 16:01:16;;;;;;;3.92;1.50;;;;;;;2.05;60.79;95973.94;5089673;28;20554;-79
2023/01/17 16:03:51;;;;;;;3.90;1.27;;;;;;;2.05;62.01;95965.91;5088923;28;20045;-79
2023/01/17 16:06:44;;;;;;;6.05;1.73;;;;;;;1.94;63.12;95975.38;5110548;28;20050;-79
2023/01/17 16:09:20;;;;;;;4.95;1.70;;;;;;;1.88;64.76;95971.72;5084012;27;20048;-79
2023/01/17 16:11:47;;;;;;;4.40;1.40;;;;;;;2.00;66.10;95995.16;5093539;28;20048;-79
2023/01/17 16:14:14;;;;;;;6.93;1.70;;;;;;;1.85;65.47;95987.34;5092121;28;20055;-79
2023/01/17 16:16:49;;;;;;;1.85;1.33;;;;;;;1.72;65.03;95974.81;5086037;28;20044;-79
2023/01/17 16:19:16;;;;;;;4.03;1.60;;;;;;;1.85;64.13;95998.06;5073256;28;20052;-79
2023/01/17 16:21:45;;;;;;;4.10;2.17;;;;;;;1.66;65.57;95981.81;5088190;28;20052;-79
2023/01/17 16:24:12;;;;;;;3.85;1.77;;;;;;;1.80;65.65;95995.19;5084798;28;20105;-79
2023/01/17 16:26:38;;;;;;;3.72;1.70;;;;;;;1.82;66.64;95993.13;5094161;28;20052;-80
2023/01/17 16:29:07;;;;;;;3.67;1.40;;;;;;;1.87;64.06;96002.19;5093428;28;20085;-79
2023/01/17 16:31:34;;;;;;;3.05;1.38;;;;;;;1.76;64.81;95978.72;5092099;28;20048;-79
2023/01/17 16:34:00;;;;;;;4.05;1.80;;;;;;;1.69;64.45;95985.94;5093272;28;20044;-79
2023/01/17 16:36:27;;;;;;;4.40;1.77;;;;;;;1.80;67.14;96014.78;5093947;28;20054;-78
2023/01/17 16:38:53;;;;;;;3.75;1.88;;;;;;;1.63;68.62;95997.50;5086000;28;20054;-79
2023/01/17 16:41:21;;;;;;;3.88;1.90;;;;;;;1.63;67.86;96010.88;5080898;28;20040;-80
